Time;durP1;ratioP1;P1;durP2;ratioP2;P2;SDS_P1;SDS_P2;PMS_P1;PMS_P2;Temp;Humidity;BMP_temperature;BMP_pressure;BME280_temperature;BME280_humidity;BME280_pressure;Samples;Min_cycle;Max_cycle;Signal;HPM_P1;HPM_P2
2023/12/19 00:04:58;;;;;;;11.82;8.85;;;;;;;;;;10287156;28;20541;-57
2023/12/19 00:09:56;;;;;;;25.17;15.75;;;;;;;;;;10283169;28;20084;-58
2023/12/19 00:14:54;;;;;;;7.35;5.80;;;;;;;;;;10287887;28;20064;-56
2023/12/19 00:19:52;;;;;;;13.10;8.88;;;;;;;;;;10287168;28;20084;-57
2023/12/19 00:24:52;;;;;;;7.35;5.25;;;;;;;;;;10287167;28;20073;-57
2023/12/19 00:29:50;;;;;;;8.68;7.78;;;;;;;;;;10283422;28;20068;-57
2023/12/19 00:34:49;;;;;;;34.05;19.27;;;;;;;;;;10282674;28;20092;-57
2023/12/19 00:39:47;;;;;;;12.23;8.35;;;;;;;;;;10285085;28;20072;-57
2023/12/19 00:44:47;;;;;;;9.25;6.53;;;;;;;;;;10284415;28;20071;-57
2023/12/19 00:49:45;;;;;;;24.80;13.32;;;;;;;;;;10288723;28;20064;-55
2023/12/19 00:54:44;;;;;;;11.00;7.05;;;;;;;;;;10281022;28;20091;-57
2023/12/19 00:59:42;;;;;;;11.73;9.15;;;;;;;;;;10285884;28;20446;-56
2023/12/19 01:04:41;;;;;;;8.65;6.57;;;;;;;;;;10284312;28;20068;-58
2023/12/19 01:09:40;;;;;;;6.68;5.60;;;;;;;;;;10286323;28;20506;-57
2023/12/19 01:14:38;;;;;;;6.05;5.05;;;;;;;;;;10286063;28;20076;-58
2023/12/19 01:19:37;;;;;;;5.43;4.93;;;;;;;;;;10285554;28;20071;-56
2023/12/19 01:24:37;;;;;;;6.63;5.13;;;;;;;;;;10283475;28;20067;-57
2023/12/19 01:29:35;;;;;;;10.25;7.63;;;;;;;;;;10279802;28;20057;-57
2023/12/19 01:34:33;;;;;;;6.57;4.88;;;;;;;;;;10283062;28;20084;-57
2023/12/19 01:39:31;;;;;;;5.85;5.20;;;;;;;;;;10283166;28;20101;-57
2023/12/19 01:44:31;;;;;;;6.93;6.13;;;;;;;;;;10290589;28;20068;-57
2023/12/19 01:49:29;;;;;;;5.32;4.82;;;;;;;;;;10292047;28;20068;-57
2023/12/19 01:54:28;;;;;;;6.00;5.28;;;;;;;;;;10290838;28;20090;-57
2023/12/19 01:59:26;;;;;;;5.80;5.30;;;;;;;;;;10290172;28;20070;-56
2023/12/19 02:04:28;;;;;;;5.20;4.65;;;;;;;;;;10291068;28;20079;-57
2023/12/19 02:09:27;;;;;;;5.07;4.57;;;;;;;;;;10292862;28;20516;-56
2023/12/19 02:14:25;;;;;;;5.55;4.88;;;;;;;;;;10292092;28;20075;-58
2023/12/19 02:19:23;;;;;;;4.75;4.13;;;;;;;;;;10290899;28;20373;-58
2023/12/19 02:24:24;;;;;;;6.53;5.00;;;;;;;;;;10289033;28;20069;-56
2023/12/19 02:29:22;;;;;;;6.10;5.50;;;;;;;;;;10289982;28;20076;-57
2023/12/19 02:34:20;;;;;;;11.10;7.57;;;;;;;;;;10288888;28;20091;-58
2023/12/19 02:39:18;;;;;;;8.40;7.60;;;;;;;;;;10291020;28;20455;-58
2023/12/19 02:44:18;;;;;;;6.07;5.47;;;;;;;;;;10298973;28;20045;-57
2023/12/19 02:49:17;;;;;;;9.90;6.82;;;;;;;;;;10290030;28;20525;-56
2023/12/19 02:54:15;;;;;;;6.35;5.38;;;;;;;;;;10289345;28;20083;-56
2023/12/19 02:59:13;;;;;;;7.45;6.35;;;;;;;;;;10287238;28;20415;-58
2023/12/19 03:04:13;;;;;;;7.05;5.35;;;;;;;;;;10287865;28;20728;-57
2023/12/19 03:09:11;;;;;;;6.10;5.15;;;;;;;;;;10289864;28;20262;-58
2023/12/19 03:14:09;;;;;;;12.13;9.50;;;;;;;;;;10289365;28;20068;-56
2023/12/19 03:19:07;;;;;;;14.25;9.60;;;;;;;;;;10291162;28;20108;-56
2023/12/19 03:24:07;;;;;;;13.25;8.55;;;;;;;;;;10287605;28;20087;-56
2023/12/19 03:29:05;;;;;;;14.75;9.82;;;;;;;;;;10288609;28;20076;-56
2023/12/19 03:34:04;;;;;;;9.82;6.85;;;;;;;;;;10287370;28;20111;-56
2023/12/19 03:39:02;;;;;;;7.20;6.32;;;;;;;;;;10286380;28;20075;-57
2023/12/19 03:44:02;;;;;;;7.82;5.93;;;;;;;;;;10288793;28;20087;-57
2023/12/19 03:49:00;;;;;;;5.45;4.88;;;;;;;;;;10287023;28;20068;-55
2023/12/19 03:53:59;;;;;;;4.53;4.18;;;;;;;;;;10285592;28;20095;-56
2023/12/19 03:58:57;;;;;;;4.50;4.10;;;;;;;;;;10288820;28;20060;-56
2023/12/19 04:03:57;;;;;;;4.75;4.35;;;;;;;;;;10287056;28;20454;-56
2023/12/19 04:08:56;;;;;;;6.22;4.30;;;;;;;;;;10287571;28;20082;-56
2023/12/19 04:13:54;;;;;;;5.05;3.90;;;;;;;;;;10289199;28;20087;-58
2023/12/19 04:18:52;;;;;;;4.10;3.70;;;;;;;;;;10287656;28;20514;-58
2023/12/19 04:23:52;;;;;;;4.53;4.10;;;;;;;;;;10284711;28;20478;-58
2023/12/19 04:28:50;;;;;;;4.90;4.25;;;;;;;;;;10280650;28;20071;-57
2023/12/19 04:33:48;;;;;;;4.95;4.38;;;;;;;;;;10285737;28;20089;-56
2023/12/19 04:38:47;;;;;;;4.30;3.45;;;;;;;;;;10284317;28;20081;-56
2023/12/19 04:43:46;;;;;;;4.03;3.67;;;;;;;;;;10281965;28;20098;-56
2023/12/19 04:48:44;;;;;;;6.05;4.38;;;;;;;;;;10286109;28;20072;-57
2023/12/19 04:53:43;;;;;;;4.88;4.45;;;;;;;;;;10284130;28;20514;-57
2023/12/19 04:58:41;;;;;;;4.90;4.38;;;;;;;;;;10285175;28;20068;-56
2023/12/19 05:03:41;;;;;;;6.28;5.68;;;;;;;;;;10278075;28;20071;-57
2023/12/19 05:08:40;;;;;;;5.95;4.97;;;;;;;;;;10283880;28;20075;-56
2023/12/19 05:13:39;;;;;;;5.07;4.15;;;;;;;;;;10284569;28;20076;-56
2023/12/19 05:18:37;;;;;;;6.07;3.80;;;;;;;;;;10286911;28;20076;-57
2023/12/19 05:23:37;;;;;;;5.57;4.43;;;;;;;;;;10293684;28;20581;-57
2023/12/19 05:28:36;;;;;;;5.35;4.75;;;;;;;;;;10274924;28;20699;-58
2023/12/19 05:33:35;;;;;;;5.95;4.38;;;;;;;;;;10286490;28;20143;-56
2023/12/19 05:38:33;;;;;;;4.60;4.20;;;;;;;;;;10264612;28;20081;-58
2023/12/19 05:43:33;;;;;;;6.32;5.07;;;;;;;;;;10262844;28;20046;-58
2023/12/19 05:48:31;;;;;;;5.90;5.07;;;;;;;;;;10305815;28;20143;-55
2023/12/19 05:53:29;;;;;;;5.30;4.80;;;;;;;;;;10293389;28;20698;-55
2023/12/19 05:58:27;;;;;;;5.07;4.57;;;;;;;;;;10287262;28;20566;-55
2023/12/19 06:03:27;;;;;;;9.40;5.13;;;;;;;;;;10287310;28;20475;-55
2023/12/19 06:08:25;;;;;;;6.93;4.47;;;;;;;;;;10281818;28;21064;-58
2023/12/19 06:13:24;;;;;;;7.93;6.63;;;;;;;;;;10289708;28;20132;-58
2023/12/19 06:18:22;;;;;;;7.40;6.55;;;;;;;;;;10272248;28;20516;-57
2023/12/19 06:23:22;;;;;;;5.93;5.40;;;;;;;;;;10276760;28;20432;-56
2023/12/19 06:28:20;;;;;;;5.30;4.80;;;;;;;;;;10261630;28;20051;-57
2023/12/19 06:33:18;;;;;;;5.10;4.60;;;;;;;;;;10265499;28;20506;-58
2023/12/19 06:38:17;;;;;;;11.38;8.90;;;;;;;;;;10316332;28;20195;-57
2023/12/19 06:43:19;;;;;;;7.15;6.43;;;;;;;;;;10315969;28;20528;-56
2023/12/19 06:48:23;;;;;;;8.02;7.18;;;;;;;;;;10296523;28;20131;-57
2023/12/19 06:53:21;;;;;;;12.87;10.07;;;;;;;;;;10307719;28;20082;-58
2023/12/19 06:58:21;;;;;;;9.60;7.30;;;;;;;;;;10312323;28;20493;-56
2023/12/19 07:03:21;;;;;;;6.10;5.50;;;;;;;;;;10291877;28;20066;-55
2023/12/19 07:08:19;;;;;;;6.85;6.15;;;;;;;;;;10314342;28;20411;-56
2023/12/19 07:13:17;;;;;;;7.38;6.65;;;;;;;;;;10277517;28;20154;-56
2023/12/19 07:18:17;;;;;;;5.60;5.03;;;;;;;;;;10306865;28;20064;-56
2023/12/19 07:23:15;;;;;;;8.65;7.35;;;;;;;;;;10310175;28;20402;-57
2023/12/19 07:28:15;;;;;;;14.63;12.90;;;;;;;;;;10303012;28;20072;-56
2023/12/19 07:33:13;;;;;;;14.55;8.48;;;;;;;;;;10291178;28;20136;-56
2023/12/19 07:38:13;;;;;;;10.75;8.43;;;;;;;;;;10309461;28;20830;-56
2023/12/19 07:43:11;;;;;;;9.07;7.45;;;;;;;;;;10304525;28;21197;-57
2023/12/19 07:48:09;;;;;;;7.80;5.85;;;;;;;;;;10316407;28;20059;-56
2023/12/19 07:53:08;;;;;;;15.05;7.32;;;;;;;;;;10312766;28;20055;-57
2023/12/19 07:58:07;;;;;;;8.10;6.72;;;;;;;;;;10302702;28;20076;-57
2023/12/19 08:03:06;;;;;;;8.55;5.65;;;;;;;;;;10309055;28;20068;-57
2023/12/19 08:08:05;;;;;;;6.88;4.97;;;;;;;;;;10282490;28;20135;-57
2023/12/19 08:13:03;;;;;;;7.55;5.57;;;;;;;;;;10260668;28;20051;-57
2023/12/19 08:18:03;;;;;;;7.35;4.90;;;;;;;;;;10260320;28;20798;-56
2023/12/19 08:23:02;;;;;;;6.30;5.03;;;;;;;;;;10265687;28;20517;-55
2023/12/19 08:28:01;;;;;;;6.03;5.43;;;;;;;;;;10269259;28;20048;-56
2023/12/19 08:32:59;;;;;;;10.18;5.63;;;;;;;;;;10257928;28;20662;-57
2023/12/19 08:37:59;;;;;;;11.45;8.63;;;;;;;;;;10257845;28;20040;-58
2023/12/19 08:42:59;;;;;;;8.65;7.75;;;;;;;;;;10257188;28;20139;-58
2023/12/19 08:47:57;;;;;;;9.25;7.45;;;;;;;;;;10257366;28;20601;-57
2023/12/19 08:52:55;;;;;;;10.27;7.25;;;;;;;;;;10256042;28;20044;-57
2023/12/19 08:57:55;;;;;;;14.02;11.27;;;;;;;;;;10278139;28;20053;-59
2023/12/19 09:02:53;;;;;;;7.30;6.25;;;;;;;;;;10258953;28;20058;-58
2023/12/19 09:07:51;;;;;;;7.28;5.60;;;;;;;;;;10269240;28;20042;-57
2023/12/19 09:12:50;;;;;;;9.43;8.07;;;;;;;;;;10280968;28;20132;-58
2023/12/19 09:17:52;;;;;;;19.60;11.25;;;;;;;;;;10270327;28;20048;-57
2023/12/19 09:22:50;;;;;;;13.27;9.82;;;;;;;;;;10280252;28;20581;-57
2023/12/19 09:27:49;;;;;;;5.25;4.70;;;;;;;;;;10283316;28;20483;-57
2023/12/19 09:32:47;;;;;;;8.10;5.80;;;;;;;;;;10280664;28;20080;-56
2023/12/19 09:37:47;;;;;;;6.35;5.03;;;;;;;;;;10281304;28;20481;-55
2023/12/19 09:42:45;;;;;;;7.88;5.55;;;;;;;;;;10280287;28;20091;-56
2023/12/19 09:47:49;;;;;;;4.40;4.00;;;;;;;;;;10281398;28;20088;-57
2023/12/19 09:52:49;;;;;;;6.20;5.53;;;;;;;;;;10284463;28;20537;-57
2023/12/19 09:57:49;;;;;;;5.25;4.30;;;;;;;;;;10284515;28;20075;-58
2023/12/19 10:02:47;;;;;;;6.68;4.63;;;;;;;;;;10286102;28;20076;-55
2023/12/19 10:07:47;;;;;;;6.00;5.45;;;;;;;;;;10292226;28;20510;-56
2023/12/19 10:12:49;;;;;;;12.88;7.53;;;;;;;;;;10292563;28;20064;-55
2023/12/19 10:18:07;;;;;;;11.60;9.35;;;;;;;;;;10288520;28;20077;-56
2023/12/19 10:23:06;;;;;;;10.77;8.18;;;;;;;;;;10292608;28;20076;-55
2023/12/19 10:28:08;;;;;;;6.97;5.60;;;;;;;;;;10296598;28;20110;-58
2023/12/19 10:33:07;;;;;;;10.18;6.50;;;;;;;;;;10289260;28;20080;-55
2023/12/19 10:38:05;;;;;;;11.57;8.18;;;;;;;;;;10286368;28;20072;-56
2023/12/19 10:43:08;;;;;;;7.45;6.05;;;;;;;;;;10290335;28;20076;-56
2023/12/19 10:48:07;;;;;;;9.65;7.47;;;;;;;;;;10289830;28;20952;-55
2023/12/19 10:53:08;;;;;;;11.52;8.25;;;;;;;;;;10285392;28;20139;-57
2023/12/19 10:58:09;;;;;;;6.75;6.03;;;;;;;;;;10266209;28;20040;-56
2023/12/19 11:03:13;;;;;;;11.05;7.72;;;;;;;;;;10284967;28;20147;-55
2023/12/19 11:08:13;;;;;;;8.27;5.20;;;;;;;;;;10257924;28;20597;-57
2023/12/19 11:13:13;;;;;;;12.20;7.22;;;;;;;;;;10298946;28;20586;-53
2023/12/19 11:18:15;;;;;;;10.38;7.15;;;;;;;;;;10306996;28;20131;-54
2023/12/19 11:23:17;;;;;;;17.75;10.23;;;;;;;;;;10310509;28;20070;-52
2023/12/19 11:28:17;;;;;;;14.77;9.73;;;;;;;;;;10275857;28;20119;-54
2023/12/19 11:33:27;;;;;;;20.08;13.57;;;;;;;;;;10298463;28;20135;-54
2023/12/19 11:38:26;;;;;;;17.10;10.38;;;;;;;;;;10286886;28;20134;-52
2023/12/19 11:43:43;;;;;;;12.13;8.23;;;;;;;;;;10277334;28;20123;-47
2023/12/19 11:48:44;;;;;;;10.18;7.95;;;;;;;;;;10257756;28;20055;-53
2023/12/19 11:53:43;;;;;;;6.53;5.82;;;;;;;;;;10258549;28;20047;-53
2023/12/19 11:58:45;;;;;;;7.68;5.53;;;;;;;;;;10259537;28;20036;-52
2023/12/19 12:03:45;;;;;;;9.55;8.63;;;;;;;;;;10256749;28;20067;-49
2023/12/19 12:08:52;;;;;;;9.68;8.68;;;;;;;;;;10298368;28;20132;-52
2023/12/19 12:14:00;;;;;;;9.95;5.70;;;;;;;;;;10259806;28;20040;-50
2023/12/19 12:19:10;;;;;;;19.25;16.05;;;;;;;;;;10275733;28;20142;-52
2023/12/19 12:24:09;;;;;;;8.43;7.05;;;;;;;;;;10257132;28;20040;-49
2023/12/19 12:29:07;;;;;;;9.20;8.05;;;;;;;;;;10264847;28;20046;-51
2023/12/19 12:34:06;;;;;;;7.68;6.10;;;;;;;;;;10289477;28;20161;-53
2023/12/19 12:39:05;;;;;;;5.70;4.90;;;;;;;;;;10295846;28;20546;-50
2023/12/19 12:44:11;;;;;;;13.65;9.02;;;;;;;;;;10310066;28;20079;-54
2023/12/19 12:49:09;;;;;;;5.28;4.75;;;;;;;;;;10293598;28;20090;-51
2023/12/19 12:54:09;;;;;;;8.55;5.97;;;;;;;;;;10306587;28;20065;-53
2023/12/19 12:59:08;;;;;;;12.25;9.40;;;;;;;;;;10302028;28;20080;-52
2023/12/19 13:04:07;;;;;;;6.65;5.90;;;;;;;;;;10297436;28;20067;-52
2023/12/19 13:09:09;;;;;;;9.55;7.70;;;;;;;;;;10262215;28;20044;-54
2023/12/19 13:14:09;;;;;;;9.57;8.60;;;;;;;;;;10255971;28;21704;-54
2023/12/19 13:19:07;;;;;;;10.52;7.45;;;;;;;;;;10261530;28;20041;-52
2023/12/19 13:24:05;;;;;;;8.73;7.72;;;;;;;;;;10296097;28;20071;-53
2023/12/19 13:29:06;;;;;;;10.90;9.50;;;;;;;;;;10260550;28;20903;-54
2023/12/19 13:34:05;;;;;;;14.48;11.50;;;;;;;;;;10266083;28;20122;-53
2023/12/19 13:39:04;;;;;;;8.18;7.22;;;;;;;;;;10281305;28;20062;-49
2023/12/19 13:44:02;;;;;;;15.98;9.85;;;;;;;;;;10291985;28;20143;-50
2023/12/19 13:49:00;;;;;;;7.50;6.10;;;;;;;;;;10291313;28;21683;-52
2023/12/19 13:54:00;;;;;;;7.07;6.38;;;;;;;;;;10273705;28;20138;-52
2023/12/19 13:58:59;;;;;;;10.18;7.60;;;;;;;;;;10300690;28;20139;-53
2023/12/19 14:03:58;;;;;;;10.10;9.05;;;;;;;;;;10277445;28;20434;-53
2023/12/19 14:08:56;;;;;;;13.00;11.48;;;;;;;;;;10297107;28;20124;-52
2023/12/19 14:13:55;;;;;;;22.77;20.25;;;;;;;;;;10274761;28;20056;-53
2023/12/19 14:18:54;;;;;;;53.05;47.63;;;;;;;;;;10274137;28;20058;-52
2023/12/19 14:23:52;;;;;;;47.63;42.97;;;;;;;;;;10303698;28;20135;-54
2023/12/19 14:28:51;;;;;;;70.25;57.15;;;;;;;;;;10276484;28;21257;-54
2023/12/19 14:33:50;;;;;;;56.78;44.33;;;;;;;;;;10311293;28;20075;-53
2023/12/19 14:38:49;;;;;;;42.40;35.55;;;;;;;;;;10293995;28;20540;-53
2023/12/19 14:43:47;;;;;;;40.75;34.50;;;;;;;;;;10270323;28;20040;-53
2023/12/19 14:48:46;;;;;;;63.50;52.03;;;;;;;;;;10303176;28;20127;-53
2023/12/19 14:53:46;;;;;;;28.60;23.63;;;;;;;;;;10282104;28;20464;-53
2023/12/19 14:58:44;;;;;;;37.08;29.40;;;;;;;;;;10280134;28;20139;-52
2023/12/19 15:03:43;;;;;;;33.35;29.75;;;;;;;;;;10287799;28;20071;-54
2023/12/19 15:08:42;;;;;;;32.22;27.50;;;;;;;;;;10282132;28;20064;-54
2023/12/19 15:13:41;;;;;;;32.42;28.73;;;;;;;;;;10285046;28;20079;-49
2023/12/19 15:18:40;;;;;;;25.20;22.50;;;;;;;;;;10286721;28;20530;-54
2023/12/19 15:23:41;;;;;;;26.50;19.05;;;;;;;;;;10289755;28;20059;-51
2023/12/19 15:28:39;;;;;;;25.80;18.52;;;;;;;;;;10265545;28;20588;-49
2023/12/19 15:33:39;;;;;;;121.10;70.70;;;;;;;;;;10274486;28;20509;-53
2023/12/19 15:38:37;;;;;;;39.30;28.38;;;;;;;;;;10287761;28;20135;-50
2023/12/19 15:43:37;;;;;;;42.70;32.70;;;;;;;;;;10297997;28;21049;-53
2023/12/19 15:48:41;;;;;;;39.00;32.63;;;;;;;;;;10304278;28;20123;-53
2023/12/19 15:53:39;;;;;;;37.13;29.13;;;;;;;;;;10263612;28;20032;-52
2023/12/19 15:58:38;;;;;;;31.25;25.63;;;;;;;;;;10258519;28;20062;-53
2023/12/19 16:03:37;;;;;;;26.23;22.95;;;;;;;;;;10260277;28;20056;-49
2023/12/19 16:08:39;;;;;;;45.13;35.95;;;;;;;;;;10257187;28;20537;-53
2023/12/19 16:13:37;;;;;;;44.20;33.20;;;;;;;;;;10269982;28;20492;-53
2023/12/19 16:18:37;;;;;;;47.15;35.45;;;;;;;;;;10274940;28;20151;-52
2023/12/19 16:23:37;;;;;;;70.43;48.65;;;;;;;;;;10256749;28;20054;-52
2023/12/19 16:28:54;;;;;;;60.15;34.33;;;;;;;;;;10257592;28;20044;-54
2023/12/19 16:33:53;;;;;;;34.08;29.52;;;;;;;;;;10261990;28;20793;-53
2023/12/19 16:38:53;;;;;;;27.33;24.25;;;;;;;;;;10277883;28;20128;-48
2023/12/19 16:43:52;;;;;;;23.77;18.50;;;;;;;;;;10285028;28;21964;-52
2023/12/19 16:48:50;;;;;;;27.02;24.13;;;;;;;;;;10289471;28;20143;-53
2023/12/19 16:53:49;;;;;;;32.55;24.55;;;;;;;;;;10292901;28;20123;-52
2023/12/19 16:58:48;;;;;;;55.45;37.25;;;;;;;;;;10297239;28;20078;-54
2023/12/19 17:03:46;;;;;;;37.78;30.15;;;;;;;;;;10276850;28;20120;-53
2023/12/19 17:08:46;;;;;;;32.25;22.48;;;;;;;;;;10282165;28;20130;-52
2023/12/19 17:13:45;;;;;;;29.98;22.30;;;;;;;;;;10259060;28;20047;-54
2023/12/19 17:18:44;;;;;;;20.63;17.35;;;;;;;;;;10289008;28;20613;-50
2023/12/19 17:23:45;;;;;;;24.85;19.33;;;;;;;;;;10283217;28;20075;-51
2023/12/19 17:28:51;;;;;;;23.42;19.25;;;;;;;;;;10281606;28;20064;-53
2023/12/19 17:33:50;;;;;;;27.25;20.45;;;;;;;;;;10280593;28;20081;-53
2023/12/19 17:38:49;;;;;;;22.42;17.45;;;;;;;;;;10278073;28;20068;-52
2023/12/19 17:43:47;;;;;;;27.55;19.73;;;;;;;;;;10283172;28;20061;-54
2023/12/19 17:48:45;;;;;;;21.60;16.60;;;;;;;;;;10283801;28;20087;-53
2023/12/19 17:53:45;;;;;;;21.55;17.38;;;;;;;;;;10287240;28;20041;-52
2023/12/19 17:58:43;;;;;;;22.45;18.88;;;;;;;;;;10280796;28;20077;-52
2023/12/19 18:03:41;;;;;;;30.20;22.95;;;;;;;;;;10281867;28;20069;-53
2023/12/19 18:08:41;;;;;;;18.33;15.95;;;;;;;;;;10286193;28;20072;-51
2023/12/19 18:13:40;;;;;;;16.95;14.05;;;;;;;;;;10282450;28;20087;-53
2023/12/19 18:18:39;;;;;;;19.75;17.10;;;;;;;;;;10286150;28;20073;-52
2023/12/19 18:23:37;;;;;;;35.72;26.58;;;;;;;;;;10285226;28;20080;-52
2023/12/19 18:28:36;;;;;;;30.75;25.30;;;;;;;;;;10293190;28;20080;-53
2023/12/19 18:33:36;;;;;;;22.30;18.50;;;;;;;;;;10292433;28;20094;-52
2023/12/19 18:38:34;;;;;;;24.23;19.33;;;;;;;;;;10294154;28;20068;-52
2023/12/19 18:43:32;;;;;;;39.30;33.15;;;;;;;;;;10292093;28;20083;-53
2023/12/19 18:48:30;;;;;;;36.03;32.17;;;;;;;;;;10291935;28;20517;-53
2023/12/19 18:53:30;;;;;;;33.50;28.60;;;;;;;;;;10292215;28;20506;-54
2023/12/19 18:58:29;;;;;;;80.18;54.13;;;;;;;;;;10291132;28;20068;-55
2023/12/19 19:03:28;;;;;;;73.15;46.20;;;;;;;;;;10293892;28;20075;-54
2023/12/19 19:08:26;;;;;;;104.30;69.93;;;;;;;;;;10285158;28;20064;-54
2023/12/19 19:13:26;;;;;;;57.47;42.72;;;;;;;;;;10291521;28;20068;-52
2023/12/19 19:18:25;;;;;;;23.90;19.92;;;;;;;;;;10292388;28;20068;-51
2023/12/19 19:23:23;;;;;;;39.72;26.75;;;;;;;;;;10290517;28;20079;-50
2023/12/19 19:28:23;;;;;;;36.33;25.52;;;;;;;;;;10288368;28;20056;-48
2023/12/19 19:33:24;;;;;;;32.08;23.55;;;;;;;;;;10283914;28;20076;-52
2023/12/19 19:38:27;;;;;;;23.17;18.27;;;;;;;;;;10289032;28;20076;-53
2023/12/19 19:43:26;;;;;;;16.73;13.75;;;;;;;;;;10289193;28;20151;-53
2023/12/19 19:48:26;;;;;;;14.65;13.15;;;;;;;;;;10289936;28;20469;-51
2023/12/19 19:53:24;;;;;;;14.95;11.90;;;;;;;;;;10291026;28;20118;-53
2023/12/19 19:58:22;;;;;;;12.75;10.77;;;;;;;;;;10290802;28;20084;-54
2023/12/19 20:03:21;;;;;;;11.45;9.38;;;;;;;;;;10283263;28;20088;-53
2023/12/19 20:08:21;;;;;;;8.63;7.60;;;;;;;;;;10289028;28;20072;-53
2023/12/19 20:13:19;;;;;;;7.85;6.18;;;;;;;;;;10289036;28;20064;-53
2023/12/19 20:18:17;;;;;;;9.98;7.97;;;;;;;;;;10288641;28;20072;-54
2023/12/19 20:23:16;;;;;;;10.55;9.45;;;;;;;;;;10289544;28;20076;-52
2023/12/19 20:28:16;;;;;;;8.90;7.90;;;;;;;;;;10284436;28;20067;-55
2023/12/19 20:33:15;;;;;;;26.25;19.90;;;;;;;;;;10284275;28;20076;-51
2023/12/19 20:38:13;;;;;;;16.05;13.43;;;;;;;;;;10287588;28;20518;-53
2023/12/19 20:43:11;;;;;;;19.23;14.50;;;;;;;;;;10288522;28;20072;-52
2023/12/19 20:48:11;;;;;;;16.40;13.05;;;;;;;;;;10286117;28;20480;-51
2023/12/19 20:53:13;;;;;;;10.27;9.18;;;;;;;;;;10289567;28;20049;-53
2023/12/19 20:58:12;;;;;;;8.93;7.78;;;;;;;;;;10286924;28;20461;-52
2023/12/19 21:03:12;;;;;;;7.07;6.25;;;;;;;;;;10288286;28;20106;-55
2023/12/19 21:08:10;;;;;;;13.05;10.90;;;;;;;;;;10286608;28;20083;-54
2023/12/19 21:13:09;;;;;;;29.33;19.55;;;;;;;;;;10286207;28;20068;-54
2023/12/19 21:18:07;;;;;;;53.47;34.03;;;;;;;;;;10286744;28;20459;-51
2023/12/19 21:23:06;;;;;;;41.35;25.30;;;;;;;;;;10281562;28;20538;-54
2023/12/19 21:28:06;;;;;;;20.17;15.48;;;;;;;;;;10288067;28;20083;-53
2023/12/19 21:33:05;;;;;;;29.48;21.38;;;;;;;;;;10284049;28;20080;-52
2023/12/19 21:38:03;;;;;;;23.98;17.90;;;;;;;;;;10288364;28;20060;-49
2023/12/19 21:43:03;;;;;;;15.15;12.38;;;;;;;;;;10285689;28;20073;-53
2023/12/19 21:48:01;;;;;;;14.35;11.27;;;;;;;;;;10283085;28;20068;-52
2023/12/19 21:53:00;;;;;;;12.60;10.18;;;;;;;;;;10285431;28;20064;-49
2023/12/19 21:57:58;;;;;;;13.10;10.52;;;;;;;;;;10286084;28;20064;-54
2023/12/19 22:02:58;;;;;;;11.82;9.68;;;;;;;;;;10291989;28;20065;-55
2023/12/19 22:07:56;;;;;;;13.77;11.00;;;;;;;;;;10292423;28;20091;-53
2023/12/19 22:12:54;;;;;;;18.70;13.00;;;;;;;;;;10293377;28;20119;-52
2023/12/19 22:17:53;;;;;;;13.00;10.27;;;;;;;;;;10293250;28;20095;-54
2023/12/19 22:22:52;;;;;;;15.70;12.95;;;;;;;;;;10292116;28;20072;-52
2023/12/19 22:27:50;;;;;;;29.90;20.77;;;;;;;;;;10288175;28;20064;-53
2023/12/19 22:32:49;;;;;;;42.83;28.88;;;;;;;;;;10292867;28;20072;-50
2023/12/19 22:37:47;;;;;;;46.90;31.00;;;;;;;;;;10288106;28;20065;-53
2023/12/19 22:42:46;;;;;;;32.28;23.05;;;;;;;;;;10291536;28;20477;-54
2023/12/19 22:47:45;;;;;;;45.55;29.05;;;;;;;;;;10287585;28;20111;-53
2023/12/19 22:52:45;;;;;;;30.42;20.63;;;;;;;;;;10290962;28;20081;-53
2023/12/19 22:57:44;;;;;;;27.73;19.30;;;;;;;;;;10290643;28;20072;-54
2023/12/19 23:02:44;;;;;;;22.20;15.95;;;;;;;;;;10288367;28;20076;-53
2023/12/19 23:07:42;;;;;;;33.75;22.98;;;;;;;;;;10291512;28;20075;-53
2023/12/19 23:12:41;;;;;;;20.02;14.57;;;;;;;;;;10289608;28;20076;-52
2023/12/19 23:17:39;;;;;;;18.75;14.40;;;;;;;;;;10290705;28;20076;-52
2023/12/19 23:22:40;;;;;;;19.23;13.13;;;;;;;;;;10275927;28;20135;-53
2023/12/19 23:27:38;;;;;;;21.70;14.85;;;;;;;;;;10261181;28;20040;-52
2023/12/19 23:32:36;;;;;;;19.95;13.40;;;;;;;;;;10259720;28;20066;-53
2023/12/19 23:37:34;;;;;;;16.42;11.15;;;;;;;;;;10258884;28;20066;-54
2023/12/19 23:42:34;;;;;;;12.38;10.13;;;;;;;;;;10256938;28;21402;-53
2023/12/19 23:47:32;;;;;;;12.15;8.45;;;;;;;;;;10259737;28;20060;-54
2023/12/19 23:52:31;;;;;;;13.60;10.43;;;;;;;;;;10266031;28;21924;-50
2023/12/19 23:57:29;;;;;;;16.15;10.88;;;;;;;;;;10250633;28;20059;-52
